UAL155 PKMJ-PKWA
Flight info
| Callsign | UAL155 |
|---|---|
| Flight time | 0h 46m |
| Altitude | 32000 |
| Route | FEBER |
| Aircraft | B38M/M-SDE1FGHILORVWXY/HB1 |
Departure
| Time | 2026-05-04 23:36 |
|---|---|
| Airport | Marshall Islands International Airport (PKMJ) |
Arrival
| Time | 2026-05-05 00:23 |
|---|---|
| Airport | Bucholz Army Air Field (PKWA) |
| Time | Latitude | Longitude | Altitude | Speed | Heading |
|---|---|---|---|---|---|
| 2026-05-04 23:25 | 7.06842 | 171.28189 | 7 ft | 0 kts | 123° |
| 2026-05-04 23:31 | 7.06831 | 171.28201 | 8 ft | 5 kts | 143° |
| 2026-05-04 23:32 | 7.06763 | 171.28210 | 7 ft | 15 kts | 200° |
| 2026-05-04 23:32 | 7.06718 | 171.28102 | 5 ft | 20 kts | 257° |
| 2026-05-04 23:32 | 7.06682 | 171.27949 | 4 ft | 24 kts | 256° |
| 2026-05-04 23:32 | 7.06641 | 171.27776 | 5 ft | 27 kts | 256° |
| 2026-05-04 23:33 | 7.06593 | 171.27579 | 3 ft | 31 kts | 256° |
| 2026-05-04 23:33 | 7.06539 | 171.27361 | 4 ft | 33 kts | 256° |
| 2026-05-04 23:33 | 7.06481 | 171.27124 | 6 ft | 36 kts | 256° |
| 2026-05-04 23:33 | 7.06420 | 171.26869 | 2 ft | 40 kts | 256° |
| 2026-05-04 23:34 | 7.06353 | 171.26587 | 1 ft | 43 kts | 256° |
| 2026-05-04 23:34 | 7.06287 | 171.26336 | 0 ft | 30 kts | 255° |
| 2026-05-04 23:34 | 7.06250 | 171.26184 | 1 ft | 10 kts | 267° |
| 2026-05-04 23:34 | 7.06249 | 171.26142 | 1 ft | 5 kts | 226° |
| 2026-05-04 23:35 | 7.06230 | 171.26142 | 1 ft | 1 kts | 133° |
| 2026-05-04 23:35 | 7.06231 | 171.26147 | 1 ft | 2 kts | 77° |
| 2026-05-04 23:35 | 7.06253 | 171.26178 | 1 ft | 6 kts | 75° |
| 2026-05-04 23:35 | 7.06259 | 171.26204 | 1 ft | 13 kts | 75° |
| 2026-05-04 23:36 | 7.06351 | 171.26593 | 1 ft | 98 kts | 76° |
| 2026-05-04 23:36 | 7.06562 | 171.27478 | 128 ft | 150 kts | 76° |
| 2026-05-04 23:36 | 7.06665 | 171.28548 | 895 ft | 161 kts | 103° |
| 2026-05-04 23:36 | 7.06013 | 171.29472 | 1642 ft | 177 kts | 142° |
| 2026-05-04 23:37 | 7.04706 | 171.29739 | 2101 ft | 217 kts | 184° |
| 2026-05-04 23:37 | 7.03279 | 171.28920 | 2639 ft | 260 kts | 226° |
| 2026-05-04 23:37 | 7.02528 | 171.27274 | 3660 ft | 267 kts | 256° |
| 2026-05-04 23:37 | 7.02512 | 171.25360 | 4372 ft | 286 kts | 287° |
| 2026-05-04 23:38 | 7.03453 | 171.23564 | 5167 ft | 295 kts | 307° |
| 2026-05-04 23:38 | 7.04514 | 171.21789 | 6148 ft | 298 kts | 302° |
| 2026-05-04 23:38 | 7.05543 | 171.19957 | 7091 ft | 302 kts | 301° |
| 2026-05-04 23:38 | 7.06565 | 171.18103 | 8124 ft | 303 kts | 300° |
| 2026-05-04 23:39 | 7.07587 | 171.16227 | 9099 ft | 309 kts | 299° |
| 2026-05-04 23:39 | 7.08627 | 171.14308 | 9965 ft | 315 kts | 298° |
| 2026-05-04 23:39 | 7.09685 | 171.12340 | 10698 ft | 327 kts | 298° |
| 2026-05-04 23:39 | 7.10770 | 171.10306 | 11569 ft | 331 kts | 298° |
| 2026-05-04 23:40 | 7.11869 | 171.08266 | 12557 ft | 334 kts | 298° |
| 2026-05-04 23:40 | 7.12976 | 171.06199 | 13592 ft | 336 kts | 298° |
| 2026-05-04 23:40 | 7.14091 | 171.04127 | 14521 ft | 339 kts | 297° |
| 2026-05-04 23:40 | 7.15217 | 171.02033 | 15389 ft | 343 kts | 297° |
| 2026-05-04 23:41 | 7.16361 | 170.99908 | 16219 ft | 349 kts | 297° |
| 2026-05-04 23:41 | 7.17526 | 170.97737 | 17012 ft | 354 kts | 297° |
| 2026-05-04 23:41 | 7.18704 | 170.95546 | 17896 ft | 357 kts | 297° |
| 2026-05-04 23:41 | 7.19890 | 170.93341 | 18638 ft | 361 kts | 297° |
| 2026-05-04 23:42 | 7.21092 | 170.91101 | 19293 ft | 365 kts | 297° |
| 2026-05-04 23:42 | 7.22314 | 170.88830 | 19920 ft | 372 kts | 297° |
| 2026-05-04 23:42 | 7.23550 | 170.86526 | 20567 ft | 376 kts | 297° |
| 2026-05-04 23:42 | 7.24782 | 170.84233 | 21237 ft | 378 kts | 297° |
| 2026-05-04 23:43 | 7.26049 | 170.81874 | 21945 ft | 381 kts | 297° |
| 2026-05-04 23:43 | 7.27298 | 170.79550 | 22585 ft | 384 kts | 297° |
| 2026-05-04 23:43 | 7.28595 | 170.77135 | 23152 ft | 390 kts | 297° |
| 2026-05-04 23:43 | 7.29888 | 170.74724 | 23768 ft | 391 kts | 297° |
| 2026-05-04 23:44 | 7.31184 | 170.72309 | 24346 ft | 393 kts | 297° |
| 2026-05-04 23:44 | 7.32471 | 170.69910 | 24848 ft | 396 kts | 297° |
| 2026-05-04 23:44 | 7.33787 | 170.67460 | 25383 ft | 398 kts | 297° |
| 2026-05-04 23:44 | 7.35108 | 170.65000 | 25912 ft | 401 kts | 297° |
| 2026-05-04 23:45 | 7.36436 | 170.62523 | 26453 ft | 402 kts | 298° |
| 2026-05-04 23:45 | 7.37769 | 170.60038 | 26985 ft | 404 kts | 298° |
| 2026-05-04 23:45 | 7.39110 | 170.57540 | 27495 ft | 407 kts | 298° |
| 2026-05-04 23:45 | 7.40458 | 170.55026 | 28017 ft | 409 kts | 298° |
| 2026-05-04 23:46 | 7.41812 | 170.52501 | 28535 ft | 411 kts | 298° |
| 2026-05-04 23:46 | 7.43178 | 170.49955 | 28988 ft | 414 kts | 298° |
| 2026-05-04 23:46 | 7.44539 | 170.47396 | 29504 ft | 415 kts | 296° |
| 2026-05-04 23:46 | 7.45602 | 170.44687 | 29947 ft | 418 kts | 290° |
| 2026-05-04 23:47 | 7.46642 | 170.41934 | 30270 ft | 422 kts | 291° |
| 2026-05-04 23:47 | 7.47714 | 170.39180 | 30723 ft | 422 kts | 291° |
| 2026-05-04 23:47 | 7.48796 | 170.36432 | 31118 ft | 425 kts | 291° |
| 2026-05-04 23:47 | 7.49891 | 170.33663 | 31594 ft | 424 kts | 290° |
| 2026-05-04 23:48 | 7.50984 | 170.30903 | 31858 ft | 424 kts | 290° |
| 2026-05-04 23:48 | 7.52069 | 170.28165 | 31891 ft | 419 kts | 291° |
| 2026-05-04 23:48 | 7.54203 | 170.22776 | 31899 ft | 415 kts | 291° |
| 2026-05-04 23:49 | 7.56351 | 170.17350 | 31911 ft | 415 kts | 290° |
| 2026-05-04 23:49 | 7.58126 | 170.12864 | 31898 ft | 415 kts | 290° |
| 2026-05-04 23:50 | 7.60250 | 170.07497 | 31895 ft | 413 kts | 290° |
| 2026-05-04 23:50 | 7.62383 | 170.02101 | 31891 ft | 414 kts | 291° |
| 2026-05-04 23:51 | 7.64530 | 169.96670 | 31895 ft | 417 kts | 290° |
| 2026-05-04 23:51 | 7.66666 | 169.91263 | 31899 ft | 415 kts | 290° |
| 2026-05-04 23:52 | 7.68787 | 169.85891 | 31898 ft | 412 kts | 290° |
| 2026-05-04 23:52 | 7.70918 | 169.80495 | 31896 ft | 414 kts | 290° |
| 2026-05-04 23:53 | 7.73064 | 169.75056 | 31901 ft | 419 kts | 290° |
| 2026-05-04 23:53 | 7.75205 | 169.69629 | 31900 ft | 417 kts | 290° |
| 2026-05-04 23:54 | 7.77332 | 169.64236 | 31894 ft | 414 kts | 290° |
| 2026-05-04 23:54 | 7.79463 | 169.58825 | 31897 ft | 415 kts | 290° |
| 2026-05-04 23:55 | 7.81606 | 169.53389 | 31894 ft | 419 kts | 290° |
| 2026-05-04 23:56 | 7.84805 | 169.45262 | 31900 ft | 413 kts | 290° |
| 2026-05-04 23:56 | 7.86923 | 169.39879 | 31889 ft | 417 kts | 290° |
| 2026-05-04 23:57 | 7.89049 | 169.34473 | 31892 ft | 420 kts | 290° |
| 2026-05-04 23:57 | 7.91196 | 169.29015 | 31897 ft | 417 kts | 290° |
| 2026-05-04 23:58 | 7.93298 | 169.23670 | 31746 ft | 399 kts | 290° |
| 2026-05-04 23:58 | 7.94314 | 169.21082 | 31344 ft | 395 kts | 290° |
| 2026-05-04 23:58 | 7.95320 | 169.18522 | 30796 ft | 396 kts | 291° |
| 2026-05-04 23:58 | 7.96333 | 169.15940 | 30270 ft | 396 kts | 291° |
| 2026-05-04 23:59 | 7.97346 | 169.13362 | 29780 ft | 395 kts | 292° |
| 2026-05-04 23:59 | 7.98354 | 169.10790 | 29266 ft | 393 kts | 292° |
| 2026-05-04 23:59 | 7.99357 | 169.08236 | 28812 ft | 390 kts | 292° |
| 2026-05-04 23:59 | 8.00352 | 169.05699 | 28379 ft | 387 kts | 291° |
| 2026-05-05 00:00 | 8.01337 | 169.03187 | 27953 ft | 384 kts | 291° |
| 2026-05-05 00:00 | 8.01998 | 169.01503 | 27669 ft | 382 kts | 291° |
| 2026-05-05 00:00 | 8.03287 | 168.98215 | 27099 ft | 379 kts | 291° |
| 2026-05-05 00:00 | 8.04251 | 168.95758 | 26694 ft | 377 kts | 291° |
| 2026-05-05 00:01 | 8.05212 | 168.93306 | 26290 ft | 375 kts | 291° |
| 2026-05-05 00:01 | 8.06170 | 168.90863 | 25880 ft | 374 kts | 291° |
| 2026-05-05 00:01 | 8.07125 | 168.88425 | 25477 ft | 373 kts | 291° |
| 2026-05-05 00:01 | 8.08077 | 168.85995 | 25073 ft | 372 kts | 291° |
| 2026-05-05 00:02 | 8.09024 | 168.83577 | 24676 ft | 371 kts | 291° |
| 2026-05-05 00:02 | 8.09973 | 168.81155 | 24277 ft | 370 kts | 291° |
| 2026-05-05 00:02 | 8.10919 | 168.78739 | 23879 ft | 370 kts | 290° |
| 2026-05-05 00:02 | 8.11863 | 168.76324 | 23477 ft | 370 kts | 290° |
| 2026-05-05 00:03 | 8.12809 | 168.73911 | 23014 ft | 370 kts | 290° |
| 2026-05-05 00:03 | 8.13749 | 168.71509 | 22594 ft | 368 kts | 290° |
| 2026-05-05 00:03 | 8.14684 | 168.69117 | 22193 ft | 366 kts | 291° |
| 2026-05-05 00:03 | 8.15616 | 168.66733 | 21802 ft | 363 kts | 291° |
| 2026-05-05 00:04 | 8.16540 | 168.64369 | 21408 ft | 362 kts | 291° |
| 2026-05-05 00:04 | 8.17461 | 168.62016 | 21028 ft | 360 kts | 291° |
| 2026-05-05 00:04 | 8.18378 | 168.59672 | 20655 ft | 358 kts | 291° |
| 2026-05-05 00:04 | 8.19289 | 168.57341 | 20274 ft | 356 kts | 291° |
| 2026-05-05 00:05 | 8.20196 | 168.55019 | 19897 ft | 355 kts | 291° |
| 2026-05-05 00:05 | 8.21099 | 168.52706 | 19517 ft | 354 kts | 291° |
| 2026-05-05 00:05 | 8.22000 | 168.50401 | 19144 ft | 352 kts | 291° |
| 2026-05-05 00:05 | 8.22894 | 168.48114 | 18769 ft | 351 kts | 291° |
| 2026-05-05 00:06 | 8.23787 | 168.45824 | 18395 ft | 351 kts | 291° |
| 2026-05-05 00:06 | 8.24671 | 168.43562 | 17998 ft | 350 kts | 291° |
| 2026-05-05 00:06 | 8.25561 | 168.41280 | 17584 ft | 348 kts | 291° |
| 2026-05-05 00:06 | 8.26448 | 168.39008 | 17197 ft | 346 kts | 291° |
| 2026-05-05 00:07 | 8.27327 | 168.36754 | 16814 ft | 344 kts | 291° |
| 2026-05-05 00:07 | 8.28202 | 168.34512 | 16450 ft | 342 kts | 291° |
| 2026-05-05 00:07 | 8.29070 | 168.32286 | 16083 ft | 340 kts | 291° |
| 2026-05-05 00:07 | 8.29936 | 168.30065 | 15719 ft | 339 kts | 291° |
| 2026-05-05 00:08 | 8.30798 | 168.27854 | 15351 ft | 337 kts | 291° |
| 2026-05-05 00:08 | 8.31652 | 168.25666 | 14990 ft | 336 kts | 291° |
| 2026-05-05 00:08 | 8.32505 | 168.23477 | 14627 ft | 335 kts | 291° |
| 2026-05-05 00:08 | 8.33357 | 168.21291 | 14261 ft | 334 kts | 291° |
| 2026-05-05 00:09 | 8.34206 | 168.19110 | 13909 ft | 333 kts | 291° |
| 2026-05-05 00:09 | 8.35052 | 168.16938 | 13524 ft | 332 kts | 291° |
| 2026-05-05 00:09 | 8.35897 | 168.14770 | 13123 ft | 331 kts | 291° |
| 2026-05-05 00:09 | 8.36736 | 168.12614 | 12742 ft | 329 kts | 292° |
| 2026-05-05 00:10 | 8.37573 | 168.10467 | 12391 ft | 327 kts | 291° |
| 2026-05-05 00:10 | 8.38402 | 168.08336 | 12044 ft | 326 kts | 292° |
| 2026-05-05 00:10 | 8.39229 | 168.06211 | 11677 ft | 325 kts | 292° |
| 2026-05-05 00:10 | 8.40052 | 168.04094 | 11318 ft | 324 kts | 292° |
| 2026-05-05 00:11 | 8.40873 | 168.01986 | 10968 ft | 323 kts | 292° |
| 2026-05-05 00:11 | 8.41694 | 167.99873 | 10614 ft | 322 kts | 292° |
| 2026-05-05 00:11 | 8.42513 | 167.97768 | 10263 ft | 321 kts | 292° |
| 2026-05-05 00:11 | 8.43329 | 167.95670 | 9980 ft | 318 kts | 292° |
| 2026-05-05 00:12 | 8.44133 | 167.93601 | 9727 ft | 314 kts | 292° |
| 2026-05-05 00:12 | 8.44930 | 167.91551 | 9346 ft | 313 kts | 292° |
| 2026-05-05 00:12 | 8.45725 | 167.89506 | 8977 ft | 313 kts | 292° |
| 2026-05-05 00:12 | 8.46519 | 167.87464 | 8624 ft | 312 kts | 292° |
| 2026-05-05 00:13 | 8.47311 | 167.85428 | 8272 ft | 311 kts | 292° |
| 2026-05-05 00:13 | 8.48099 | 167.83397 | 7930 ft | 310 kts | 292° |
| 2026-05-05 00:13 | 8.48885 | 167.81372 | 7590 ft | 309 kts | 292° |
| 2026-05-05 00:13 | 8.49670 | 167.79350 | 7245 ft | 308 kts | 292° |
| 2026-05-05 00:14 | 8.50438 | 167.77372 | 6929 ft | 300 kts | 293° |
| 2026-05-05 00:14 | 8.51195 | 167.75423 | 6623 ft | 298 kts | 293° |
| 2026-05-05 00:14 | 8.51942 | 167.73499 | 6305 ft | 297 kts | 293° |
| 2026-05-05 00:14 | 8.52695 | 167.71556 | 5921 ft | 298 kts | 293° |
| 2026-05-05 00:15 | 8.53451 | 167.69601 | 5524 ft | 299 kts | 294° |
| 2026-05-05 00:15 | 8.54207 | 167.67646 | 5184 ft | 299 kts | 293° |
| 2026-05-05 00:15 | 8.54964 | 167.65690 | 4846 ft | 299 kts | 293° |
| 2026-05-05 00:15 | 8.55722 | 167.63735 | 4495 ft | 298 kts | 293° |
| 2026-05-05 00:16 | 8.56469 | 167.61802 | 4163 ft | 291 kts | 293° |
| 2026-05-05 00:16 | 8.57189 | 167.59944 | 3993 ft | 276 kts | 294° |
| 2026-05-05 00:16 | 8.57958 | 167.58212 | 3840 ft | 263 kts | 309° |
| 2026-05-05 00:16 | 8.59244 | 167.57051 | 3674 ft | 239 kts | 340° |
| 2026-05-05 00:17 | 8.60737 | 167.56467 | 3620 ft | 224 kts | 348° |
| 2026-05-05 00:17 | 8.62198 | 167.55960 | 3499 ft | 222 kts | 348° |
| 2026-05-05 00:17 | 8.63671 | 167.55484 | 3348 ft | 220 kts | 354° |
| 2026-05-05 00:17 | 8.65119 | 167.55535 | 3169 ft | 203 kts | 27° |
| 2026-05-05 00:18 | 8.66216 | 167.56275 | 3040 ft | 181 kts | 55° |
| 2026-05-05 00:18 | 8.66809 | 167.57323 | 2871 ft | 167 kts | 71° |
| 2026-05-05 00:18 | 8.67236 | 167.58397 | 2665 ft | 164 kts | 72° |
| 2026-05-05 00:18 | 8.67631 | 167.59467 | 2451 ft | 161 kts | 72° |
| 2026-05-05 00:19 | 8.67997 | 167.60509 | 2327 ft | 153 kts | 73° |
| 2026-05-05 00:19 | 8.68325 | 167.61473 | 2218 ft | 133 kts | 72° |
| 2026-05-05 00:19 | 8.68623 | 167.62277 | 2130 ft | 114 kts | 71° |
| 2026-05-05 00:19 | 8.68873 | 167.63020 | 2048 ft | 111 kts | 75° |
| 2026-05-05 00:20 | 8.69108 | 167.63765 | 1875 ft | 111 kts | 75° |
| 2026-05-05 00:20 | 8.69330 | 167.64500 | 1656 ft | 111 kts | 75° |
| 2026-05-05 00:20 | 8.69563 | 167.65255 | 1447 ft | 115 kts | 74° |
| 2026-05-05 00:20 | 8.69823 | 167.66037 | 1228 ft | 115 kts | 73° |
| 2026-05-05 00:21 | 8.70064 | 167.66799 | 959 ft | 116 kts | 75° |
| 2026-05-05 00:21 | 8.70286 | 167.67584 | 737 ft | 117 kts | 75° |
| 2026-05-05 00:21 | 8.70517 | 167.68358 | 653 ft | 115 kts | 72° |
| 2026-05-05 00:21 | 8.70762 | 167.69122 | 583 ft | 115 kts | 73° |
| 2026-05-05 00:22 | 8.71001 | 167.69883 | 456 ft | 114 kts | 74° |
| 2026-05-05 00:22 | 8.71232 | 167.70648 | 288 ft | 116 kts | 73° |
| 2026-05-05 00:22 | 8.71468 | 167.71420 | 154 ft | 116 kts | 74° |
| 2026-05-05 00:22 | 8.71713 | 167.72197 | 9 ft | 117 kts | 74° |
| 2026-05-05 00:23 | 8.71937 | 167.72931 | -47 ft | 91 kts | 72° |
| 2026-05-05 00:23 | 8.72057 | 167.73320 | -32 ft | 43 kts | 73° |
| 2026-05-05 00:23 | 8.72136 | 167.73567 | -48 ft | 31 kts | 72° |
| 2026-05-05 00:23 | 8.72193 | 167.73759 | -41 ft | 26 kts | 73° |
| 2026-05-05 00:24 | 8.72241 | 167.73906 | -39 ft | 10 kts | 72° |
| 2026-05-05 00:24 | 8.72278 | 167.73976 | -36 ft | 13 kts | 31° |
| 2026-05-05 00:24 | 8.72372 | 167.73962 | -37 ft | 16 kts | 343° |
| 2026-05-05 00:24 | 8.72492 | 167.73927 | -34 ft | 20 kts | 344° |
| 2026-05-05 00:25 | 8.72567 | 167.73955 | -46 ft | 13 kts | 77° |
| 2026-05-05 00:25 | 8.72591 | 167.74052 | -39 ft | 12 kts | 74° |
| 2026-05-05 00:25 | 8.72624 | 167.74081 | -47 ft | 7 kts | 350° |
| 2026-05-05 00:25 | 8.72678 | 167.74065 | -38 ft | 4 kts | 343° |
| 2026-05-05 00:26 | 8.72701 | 167.74059 | -46 ft | 3 kts | 351° |
| 2026-05-05 00:26 | 8.72710 | 167.74065 | -47 ft | 1 kts | 57° |
| 2026-05-05 00:26 | 8.72709 | 167.74069 | -40 ft | 1 kts | 101° |
| 2026-05-05 00:26 | 8.72704 | 167.74080 | -40 ft | 2 kts | 129° |
| 2026-05-05 00:27 | 8.72698 | 167.74089 | -39 ft | 0 kts | 117° |